sensor_id;sensor_type;location;lat;lon;timestamp;pressure;altitude;pressure_sealevel;temperature;humidity
45525;BME280;31437;58.350;13.828;2022-12-18T00:00:20;100199.75;;;-0.81;nan
45525;BME280;31437;58.350;13.828;2022-12-18T00:02:45;100210.06;;;-0.79;nan
45525;BME280;31437;58.350;13.828;2022-12-18T00:05:11;100214.31;;;-0.80;nan
45525;BME280;31437;58.350;13.828;2022-12-18T00:07:36;100217.78;;;-0.81;nan
45525;BME280;31437;58.350;13.828;2022-12-18T00:10:03;100214.31;;;-0.80;nan
45525;BME280;31437;58.350;13.828;2022-12-18T00:12:28;100206.63;;;-0.81;nan
45525;BME280;31437;58.350;13.828;2022-12-18T00:14:54;100200.63;;;-0.82;nan
45525;BME280;31437;58.350;13.828;2022-12-18T00:17:19;100192.91;;;-0.82;nan
45525;BME280;31437;58.350;13.828;2022-12-18T00:19:44;100195.47;;;-0.82;nan
45525;BME280;31437;58.350;13.828;2022-12-18T00:22:09;100199.78;;;-0.82;nan
45525;BME280;31437;58.350;13.828;2022-12-18T00:24:35;100198.91;;;-0.83;nan
45525;BME280;31437;58.350;13.828;2022-12-18T00:27:00;100204.03;;;-0.83;nan
45525;BME280;31437;58.350;13.828;2022-12-18T00:29:25;100198.91;;;-0.83;nan
45525;BME280;31437;58.350;13.828;2022-12-18T00:31:50;100205.78;;;-0.82;nan
45525;BME280;31437;58.350;13.828;2022-12-18T00:34:16;100198.91;;;-0.83;nan
45525;BME280;31437;58.350;13.828;2022-12-18T00:36:41;100204.06;;;-0.81;nan
45525;BME280;31437;58.350;13.828;2022-12-18T00:39:07;100208.34;;;-0.82;nan
45525;BME280;31437;58.350;13.828;2022-12-18T00:41:33;100208.34;;;-0.82;nan
45525;BME280;31437;58.350;13.828;2022-12-18T00:44:17;100210.09;;;-0.87;nan
45525;BME280;31437;58.350;13.828;2022-12-18T00:46:44;100207.53;;;-0.87;nan
45525;BME280;31437;58.350;13.828;2022-12-18T00:49:10;100210.09;;;-0.87;nan
45525;BME280;31437;58.350;13.828;2022-12-18T00:51:35;100203.25;;;-0.88;nan
45525;BME280;31437;58.350;13.828;2022-12-18T00:54:01;100202.38;;;-0.88;nan
45525;BME280;31437;58.350;13.828;2022-12-18T00:56:26;100199.78;;;-0.88;nan
45525;BME280;31437;58.350;13.828;2022-12-18T00:58:51;100199.81;;;-0.90;nan
45525;BME280;31437;58.350;13.828;2022-12-18T01:01:17;100201.53;;;-0.89;nan
45525;BME280;31437;58.350;13.828;2022-12-18T01:03:42;100204.97;;;-0.92;nan
45525;BME280;31437;58.350;13.828;2022-12-18T01:06:10;100195.53;;;-0.91;nan
45525;BME280;31437;58.350;13.828;2022-12-18T01:08:37;100188.66;;;-0.90;nan
45525;BME280;31437;58.350;13.828;2022-12-18T01:11:09;100199.81;;;-0.92;nan
45525;BME280;31437;58.350;13.828;2022-12-18T01:13:34;100192.97;;;-0.91;nan
45525;BME280;31437;58.350;13.828;2022-12-18T01:16:00;100189.50;;;-0.92;nan
45525;BME280;31437;58.350;13.828;2022-12-18T01:18:25;100197.25;;;-0.92;nan
45525;BME280;31437;58.350;13.828;2022-12-18T01:20:50;100189.53;;;-0.90;nan
45525;BME280;31437;58.350;13.828;2022-12-18T01:23:15;100186.06;;;-0.89;nan
45525;BME280;31437;58.350;13.828;2022-12-18T01:25:41;100194.63;;;-0.88;nan
45525;BME280;31437;58.350;13.828;2022-12-18T01:28:06;100180.06;;;-0.89;nan
45525;BME280;31437;58.350;13.828;2022-12-18T01:30:31;100188.66;;;-0.87;nan
45525;BME280;31437;58.350;13.828;2022-12-18T01:32:57;100182.63;;;-0.86;nan
45525;BME280;31437;58.350;13.828;2022-12-18T01:35:22;100170.63;;;-0.87;nan
45525;BME280;31437;58.350;13.828;2022-12-18T01:37:47;100170.63;;;-0.87;nan
45525;BME280;31437;58.350;13.828;2022-12-18T01:40:13;100173.16;;;-0.86;nan
45525;BME280;31437;58.350;13.828;2022-12-18T01:42:38;100167.16;;;-0.85;nan
45525;BME280;31437;58.350;13.828;2022-12-18T01:45:04;100166.28;;;-0.84;nan
45525;BME280;31437;58.350;13.828;2022-12-18T01:50:00;100162.00;;;-0.82;nan
45525;BME280;31437;58.350;13.828;2022-12-18T01:52:27;100164.56;;;-0.82;nan
45525;BME280;31437;58.350;13.828;2022-12-18T01:54:53;100157.66;;;-0.80;nan
45525;BME280;31437;58.350;13.828;2022-12-18T01:57:19;100162.81;;;-0.78;nan
45525;BME280;31437;58.350;13.828;2022-12-18T01:59:45;100167.09;;;-0.77;nan
45525;BME280;31437;58.350;13.828;2022-12-18T02:02:13;100157.66;;;-0.78;nan
45525;BME280;31437;58.350;13.828;2022-12-18T02:04:39;100160.22;;;-0.77;nan
45525;BME280;31437;58.350;13.828;2022-12-18T02:07:13;100164.50;;;-0.76;nan
45525;BME280;31437;58.350;13.828;2022-12-18T02:14:38;100154.22;;;-0.77;nan
45525;BME280;31437;58.350;13.828;2022-12-18T02:24:33;100137.88;;;-0.75;nan
45525;BME280;31437;58.350;13.828;2022-12-18T02:27:05;100121.56;;;-0.75;nan
45525;BME280;31437;58.350;13.828;2022-12-18T02:29:37;100133.59;;;-0.76;nan
45525;BME280;31437;58.350;13.828;2022-12-18T02:32:05;100136.16;;;-0.74;nan
45525;BME280;31437;58.350;13.828;2022-12-18T02:34:34;100126.69;;;-0.74;nan
45525;BME280;31437;58.350;13.828;2022-12-18T02:37:02;100135.28;;;-0.73;nan
45525;BME280;31437;58.350;13.828;2022-12-18T02:39:29;100128.41;;;-0.73;nan
45525;BME280;31437;58.350;13.828;2022-12-18T02:41:55;100124.97;;;-0.72;nan
45525;BME280;31437;58.350;13.828;2022-12-18T02:44:21;100114.66;;;-0.72;nan
45525;BME280;31437;58.350;13.828;2022-12-18T02:46:50;100109.50;;;-0.72;nan
45525;BME280;31437;58.350;13.828;2022-12-18T02:51:48;100115.47;;;-0.68;nan
45525;BME280;31437;58.350;13.828;2022-12-18T02:54:21;100106.91;;;-0.67;nan
45525;BME280;31437;58.350;13.828;2022-12-18T02:56:53;100114.63;;;-0.67;nan
45525;BME280;31437;58.350;13.828;2022-12-18T02:59:19;100099.13;;;-0.65;nan
45525;BME280;31437;58.350;13.828;2022-12-18T03:01:52;100119.72;;;-0.62;nan
45525;BME280;31437;58.350;13.828;2022-12-18T03:06:49;100111.13;;;-0.61;nan
45525;BME280;31437;58.350;13.828;2022-12-18T03:09:19;100123.16;;;-0.60;nan
45525;BME280;31437;58.350;13.828;2022-12-18T03:11:48;100120.56;;;-0.59;nan
45525;BME280;31437;58.350;13.828;2022-12-18T03:14:36;100114.50;;;-0.56;nan
45525;BME280;31437;58.350;13.828;2022-12-18T03:17:05;100117.94;;;-0.54;nan
45525;BME280;31437;58.350;13.828;2022-12-18T03:19:32;100119.63;;;-0.53;nan
45525;BME280;31437;58.350;13.828;2022-12-18T03:21:58;100115.34;;;-0.53;nan
45525;BME280;31437;58.350;13.828;2022-12-18T03:24:26;100117.03;;;-0.52;nan
45525;BME280;31437;58.350;13.828;2022-12-18T03:26:54;100110.16;;;-0.51;nan
45525;BME280;31437;58.350;13.828;2022-12-18T03:29:40;100117.00;;;-0.50;nan
45525;BME280;31437;58.350;13.828;2022-12-18T03:32:08;100111.88;;;-0.49;nan
45525;BME280;31437;58.350;13.828;2022-12-18T03:34:35;100121.31;;;-0.51;nan
45525;BME280;31437;58.350;13.828;2022-12-18T03:37:03;100115.31;;;-0.50;nan
45525;BME280;31437;58.350;13.828;2022-12-18T03:39:29;100117.88;;;-0.48;nan
45525;BME280;31437;58.350;13.828;2022-12-18T03:47:09;100124.72;;;-0.44;nan
45525;BME280;31437;58.350;13.828;2022-12-18T03:52:09;100120.38;;;-0.40;nan
45525;BME280;31437;58.350;13.828;2022-12-18T03:54:36;100121.19;;;-0.37;nan
45525;BME280;31437;58.350;13.828;2022-12-18T03:57:07;100122.84;;;-0.33;nan
45525;BME280;31437;58.350;13.828;2022-12-18T03:59:35;100120.25;;;-0.28;nan
45525;BME280;31437;58.350;13.828;2022-12-18T04:02:02;100130.50;;;-0.25;nan
45525;BME280;31437;58.350;13.828;2022-12-18T04:04:29;100124.44;;;-0.21;nan
45525;BME280;31437;58.350;13.828;2022-12-18T04:06:55;100107.25;;;-0.17;nan
45525;BME280;31437;58.350;13.828;2022-12-18T04:09:22;100116.66;;;-0.16;nan
45525;BME280;31437;58.350;13.828;2022-12-18T04:11:47;100115.75;;;-0.12;nan
45525;BME280;31437;58.350;13.828;2022-12-18T04:14:13;100109.75;;;-0.13;nan
45525;BME280;31437;58.350;13.828;2022-12-18T04:16:38;100118.31;;;-0.11;nan
45525;BME280;31437;58.350;13.828;2022-12-18T04:19:04;100118.28;;;-0.09;nan
45525;BME280;31437;58.350;13.828;2022-12-18T04:21:29;100126.91;;;-0.09;nan
45525;BME280;31437;58.350;13.828;2022-12-18T04:23:54;100123.44;;;-0.08;nan
45525;BME280;31437;58.350;13.828;2022-12-18T04:26:19;100124.28;;;-0.07;nan
45525;BME280;31437;58.350;13.828;2022-12-18T04:28:45;100126.88;;;-0.07;nan
45525;BME280;31437;58.350;13.828;2022-12-18T04:31:10;100132.06;;;-0.09;nan
45525;BME280;31437;58.350;13.828;2022-12-18T04:33:36;100124.34;;;-0.10;nan
45525;BME280;31437;58.350;13.828;2022-12-18T04:36:01;100119.19;;;-0.10;nan
45525;BME280;31437;58.350;13.828;2022-12-18T04:38:27;100121.75;;;-0.09;nan
45525;BME280;31437;58.350;13.828;2022-12-18T04:40:52;100112.31;;;-0.11;nan
45525;BME280;31437;58.350;13.828;2022-12-18T04:43:17;100096.84;;;-0.11;nan
45525;BME280;31437;58.350;13.828;2022-12-18T04:45:43;100112.28;;;-0.10;nan
45525;BME280;31437;58.350;13.828;2022-12-18T04:48:08;100116.59;;;-0.10;nan
45525;BME280;31437;58.350;13.828;2022-12-18T04:50:33;100114.88;;;-0.10;nan
45525;BME280;31437;58.350;13.828;2022-12-18T04:52:58;100114.91;;;-0.11;nan
45525;BME280;31437;58.350;13.828;2022-12-18T04:55:24;100122.63;;;-0.11;nan
45525;BME280;31437;58.350;13.828;2022-12-18T04:57:49;100113.16;;;-0.11;nan
45525;BME280;31437;58.350;13.828;2022-12-18T05:00:14;100120.91;;;-0.11;nan
45525;BME280;31437;58.350;13.828;2022-12-18T05:02:40;100118.31;;;-0.11;nan
45525;BME280;31437;58.350;13.828;2022-12-18T05:05:05;100123.47;;;-0.11;nan
45525;BME280;31437;58.350;13.828;2022-12-18T05:07:31;100120.91;;;-0.12;nan
45525;BME280;31437;58.350;13.828;2022-12-18T05:09:56;100112.31;;;-0.11;nan
45525;BME280;31437;58.350;13.828;2022-12-18T05:12:21;100113.22;;;-0.14;nan
45525;BME280;31437;58.350;13.828;2022-12-18T05:14:46;100119.22;;;-0.13;nan
45525;BME280;31437;58.350;13.828;2022-12-18T05:17:12;100102.84;;;-0.12;nan
45525;BME280;31437;58.350;13.828;2022-12-18T05:19:37;100106.31;;;-0.12;nan
45525;BME280;31437;58.350;13.828;2022-12-18T05:22:02;100110.59;;;-0.12;nan
45525;BME280;31437;58.350;13.828;2022-12-18T05:24:28;100114.91;;;-0.11;nan
45525;BME280;31437;58.350;13.828;2022-12-18T05:26:53;100115.75;;;-0.11;nan
45525;BME280;31437;58.350;13.828;2022-12-18T05:29:18;100118.28;;;-0.09;nan
45525;BME280;31437;58.350;13.828;2022-12-18T05:31:43;100113.13;;;-0.09;nan
45525;BME280;31437;58.350;13.828;2022-12-18T05:34:09;100120.88;;;-0.09;nan
45525;BME280;31437;58.350;13.828;2022-12-18T05:36:34;100119.13;;;-0.07;nan
45525;BME280;31437;58.350;13.828;2022-12-18T05:38:59;100114.88;;;-0.08;nan
45525;BME280;31437;58.350;13.828;2022-12-18T05:41:25;100113.13;;;-0.08;nan
45525;BME280;31437;58.350;13.828;2022-12-18T05:43:50;100127.72;;;-0.07;nan
45525;BME280;31437;58.350;13.828;2022-12-18T05:46:16;100140.63;;;-0.07;nan
45525;BME280;31437;58.350;13.828;2022-12-18T05:48:43;100144.03;;;-0.06;nan
45525;BME280;31437;58.350;13.828;2022-12-18T05:51:10;100125.16;;;-0.07;nan
45525;BME280;31437;58.350;13.828;2022-12-18T05:53:36;100134.59;;;-0.07;nan
45525;BME280;31437;58.350;13.828;2022-12-18T05:56:02;100132.91;;;-0.10;nan
45525;BME280;31437;58.350;13.828;2022-12-18T05:58:28;100128.59;;;-0.08;nan
45525;BME280;31437;58.350;13.828;2022-12-18T06:00:53;100139.78;;;-0.07;nan
45525;BME280;31437;58.350;13.828;2022-12-18T06:03:19;100142.34;;;-0.07;nan
45525;BME280;31437;58.350;13.828;2022-12-18T06:05:44;100138.06;;;-0.08;nan
45525;BME280;31437;58.350;13.828;2022-12-18T06:08:10;100138.06;;;-0.08;nan
45525;BME280;31437;58.350;13.828;2022-12-18T06:10:36;100141.50;;;-0.09;nan
45525;BME280;31437;58.350;13.828;2022-12-18T06:13:01;100134.59;;;-0.07;nan
45525;BME280;31437;58.350;13.828;2022-12-18T06:15:26;100133.75;;;-0.08;nan
45525;BME280;31437;58.350;13.828;2022-12-18T06:17:52;100146.66;;;-0.08;nan
45525;BME280;31437;58.350;13.828;2022-12-18T06:20:17;100155.25;;;-0.07;nan
45525;BME280;31437;58.350;13.828;2022-12-18T06:22:42;100159.56;;;-0.08;nan
45525;BME280;31437;58.350;13.828;2022-12-18T06:25:08;100156.09;;;-0.07;nan
45525;BME280;31437;58.350;13.828;2022-12-18T06:27:33;100162.97;;;-0.06;nan
45525;BME280;31437;58.350;13.828;2022-12-18T06:29:59;100155.22;;;-0.04;nan
45525;BME280;31437;58.350;13.828;2022-12-18T06:32:24;100164.66;;;-0.05;nan
45525;BME280;31437;58.350;13.828;2022-12-18T06:34:50;100152.59;;;-0.01;nan
45525;BME280;31437;58.350;13.828;2022-12-18T06:37:15;100158.59;;;0.01;nan
45525;BME280;31437;58.350;13.828;2022-12-18T06:39:40;100155.97;;;0.03;nan
45525;BME280;31437;58.350;13.828;2022-12-18T06:42:05;100149.13;;;0.03;nan
45525;BME280;31437;58.350;13.828;2022-12-18T06:44:31;100164.56;;;0.06;nan
45525;BME280;31437;58.350;13.828;2022-12-18T06:46:56;100153.38;;;0.07;nan
45525;BME280;31437;58.350;13.828;2022-12-18T06:49:21;100156.78;;;0.08;nan
45525;BME280;31437;58.350;13.828;2022-12-18T06:51:46;100157.63;;;0.10;nan
45525;BME280;31437;58.350;13.828;2022-12-18T06:54:12;100153.31;;;0.10;nan
45525;BME280;31437;58.350;13.828;2022-12-18T06:56:37;100160.19;;;0.11;nan
45525;BME280;31437;58.350;13.828;2022-12-18T06:59:03;100167.88;;;0.14;nan
45525;BME280;31437;58.350;13.828;2022-12-18T07:01:28;100167.03;;;0.14;nan
45525;BME280;31437;58.350;13.828;2022-12-18T07:03:54;100161.03;;;0.15;nan
45525;BME280;31437;58.350;13.828;2022-12-18T07:06:21;100153.28;;;0.15;nan
45525;BME280;31437;58.350;13.828;2022-12-18T07:08:47;100185.06;;;0.17;nan
45525;BME280;31437;58.350;13.828;2022-12-18T07:11:13;100173.88;;;0.16;nan
45525;BME280;31437;58.350;13.828;2022-12-18T07:13:38;100171.31;;;0.16;nan
45525;BME280;31437;58.350;13.828;2022-12-18T07:16:05;100174.72;;;0.18;nan
45525;BME280;31437;58.350;13.828;2022-12-18T07:18:30;100173.84;;;0.19;nan
45525;BME280;31437;58.350;13.828;2022-12-18T07:20:55;100175.59;;;0.17;nan
45525;BME280;31437;58.350;13.828;2022-12-18T07:23:21;100173.84;;;0.21;nan
45525;BME280;31437;58.350;13.828;2022-12-18T07:25:46;100179.81;;;0.23;nan
45525;BME280;31437;58.350;13.828;2022-12-18T07:28:11;100189.28;;;0.22;nan
45525;BME280;31437;58.350;13.828;2022-12-18T07:30:37;100192.72;;;0.23;nan
45525;BME280;31437;58.350;13.828;2022-12-18T07:33:03;100197.03;;;0.24;nan
45525;BME280;31437;58.350;13.828;2022-12-18T07:35:28;100189.25;;;0.26;nan
45525;BME280;31437;58.350;13.828;2022-12-18T07:37:53;100204.72;;;0.26;nan
45525;BME280;31437;58.350;13.828;2022-12-18T07:40:19;100212.47;;;0.27;nan
45525;BME280;31437;58.350;13.828;2022-12-18T07:42:44;100221.03;;;0.29;nan
45525;BME280;31437;58.350;13.828;2022-12-18T07:45:09;100207.28;;;0.30;nan
45525;BME280;31437;58.350;13.828;2022-12-18T07:47:35;100210.69;;;0.31;nan
45525;BME280;31437;58.350;13.828;2022-12-18T07:50:01;100210.69;;;0.31;nan
45525;BME280;31437;58.350;13.828;2022-12-18T07:52:27;100214.97;;;0.33;nan
45525;BME280;31437;58.350;13.828;2022-12-18T07:54:52;100207.19;;;0.35;nan
45525;BME280;31437;58.350;13.828;2022-12-18T07:57:17;100213.22;;;0.35;nan
45525;BME280;31437;58.350;13.828;2022-12-18T07:59:43;100203.72;;;0.37;nan
45525;BME280;31437;58.350;13.828;2022-12-18T08:02:08;100210.63;;;0.38;nan
45525;BME280;31437;58.350;13.828;2022-12-18T08:04:33;100221.78;;;0.39;nan
45525;BME280;31437;58.350;13.828;2022-12-18T08:06:59;100221.78;;;0.39;nan
45525;BME280;31437;58.350;13.828;2022-12-18T08:09:24;100228.66;;;0.40;nan
45525;BME280;31437;58.350;13.828;2022-12-18T08:11:49;100229.50;;;0.40;nan
45525;BME280;31437;58.350;13.828;2022-12-18T08:14:14;100236.41;;;0.40;nan
45525;BME280;31437;58.350;13.828;2022-12-18T08:16:40;100230.38;;;0.39;nan
45525;BME280;31437;58.350;13.828;2022-12-18T08:19:05;100231.25;;;0.40;nan
45525;BME280;31437;58.350;13.828;2022-12-18T08:21:30;100227.78;;;0.41;nan
45525;BME280;31437;58.350;13.828;2022-12-18T08:23:57;100233.81;;;0.40;nan
45525;BME280;31437;58.350;13.828;2022-12-18T08:26:23;100226.97;;;0.39;nan
45525;BME280;31437;58.350;13.828;2022-12-18T08:28:50;100231.25;;;0.40;nan
45525;BME280;31437;58.350;13.828;2022-12-18T08:31:16;100245.88;;;0.39;nan
45525;BME280;31437;58.350;13.828;2022-12-18T08:33:41;100240.72;;;0.39;nan
45525;BME280;31437;58.350;13.828;2022-12-18T08:36:07;100244.13;;;0.41;nan
45525;BME280;31437;58.350;13.828;2022-12-18T08:38:33;100238.09;;;0.42;nan
45525;BME280;31437;58.350;13.828;2022-12-18T08:40:59;100239.78;;;0.43;nan
45525;BME280;31437;58.350;13.828;2022-12-18T08:43:25;100246.72;;;0.41;nan
45525;BME280;31437;58.350;13.828;2022-12-18T08:46:09;100251.88;;;0.41;nan
45525;BME280;31437;58.350;13.828;2022-12-18T08:48:34;100251.88;;;0.41;nan
45525;BME280;31437;58.350;13.828;2022-12-18T08:50:59;100241.56;;;0.40;nan
45525;BME280;31437;58.350;13.828;2022-12-18T08:53:25;100257.03;;;0.40;nan
45525;BME280;31437;58.350;13.828;2022-12-18T08:55:52;100253.56;;;0.41;nan
45525;BME280;31437;58.350;13.828;2022-12-18T08:58:18;100262.25;;;0.38;nan
45525;BME280;31437;58.350;13.828;2022-12-18T09:00:43;100259.63;;;0.40;nan
45525;BME280;31437;58.350;13.828;2022-12-18T09:03:12;100265.66;;;0.39;nan
45525;BME280;31437;58.350;13.828;2022-12-18T09:05:38;100247.59;;;0.37;nan
45525;BME280;31437;58.350;13.828;2022-12-18T09:08:03;100240.72;;;0.38;nan
45525;BME280;31437;58.350;13.828;2022-12-18T09:10:28;100251.03;;;0.38;nan
45525;BME280;31437;58.350;13.828;2022-12-18T09:12:53;100245.91;;;0.36;nan
45525;BME280;31437;58.350;13.828;2022-12-18T09:15:21;100245.06;;;0.36;nan
45525;BME280;31437;58.350;13.828;2022-12-18T09:17:46;100248.50;;;0.35;nan
45525;BME280;31437;58.350;13.828;2022-12-18T09:20:11;100242.50;;;0.33;nan
45525;BME280;31437;58.350;13.828;2022-12-18T09:22:36;100248.53;;;0.33;nan
45525;BME280;31437;58.350;13.828;2022-12-18T09:25:02;100259.69;;;0.34;nan
45525;BME280;31437;58.350;13.828;2022-12-18T09:27:27;100274.28;;;0.36;nan
45525;BME280;31437;58.350;13.828;2022-12-18T09:29:52;100272.56;;;0.37;nan
45525;BME280;31437;58.350;13.828;2022-12-18T09:32:18;100277.72;;;0.38;nan
45525;BME280;31437;58.350;13.828;2022-12-18T09:34:43;100267.38;;;0.41;nan
45525;BME280;31437;58.350;13.828;2022-12-18T09:37:08;100255.28;;;0.43;nan
45525;BME280;31437;58.350;13.828;2022-12-18T09:39:34;100249.22;;;0.46;nan
45525;BME280;31437;58.350;13.828;2022-12-18T09:41:59;100247.50;;;0.48;nan
45525;BME280;31437;58.350;13.828;2022-12-18T09:44:35;100244.00;;;0.52;nan
45525;BME280;31437;58.350;13.828;2022-12-18T09:47:15;100252.59;;;0.53;nan
45525;BME280;31437;58.350;13.828;2022-12-18T09:49:47;100269.84;;;0.51;nan
45525;BME280;31437;58.350;13.828;2022-12-18T09:52:19;100289.59;;;0.52;nan
45525;BME280;31437;58.350;13.828;2022-12-18T09:54:49;100284.44;;;0.52;nan
45525;BME280;31437;58.350;13.828;2022-12-18T09:57:17;100282.75;;;0.51;nan
45525;BME280;31437;58.350;13.828;2022-12-18T09:59:43;100284.44;;;0.52;nan
45525;BME280;31437;58.350;13.828;2022-12-18T10:02:15;100287.88;;;0.54;nan
45525;BME280;31437;58.350;13.828;2022-12-18T10:04:40;100287.00;;;0.55;nan
45525;BME280;31437;58.350;13.828;2022-12-18T10:10:13;100285.22;;;0.60;nan
45525;BME280;31437;58.350;13.828;2022-12-18T10:12:47;100270.56;;;0.60;nan
45525;BME280;31437;58.350;13.828;2022-12-18T10:18:01;100264.47;;;0.64;nan
45525;BME280;31437;58.350;13.828;2022-12-18T10:20:38;100262.75;;;0.66;nan
45525;BME280;31437;58.350;13.828;2022-12-18T10:23:14;100270.50;;;0.68;nan
45525;BME280;31437;58.350;13.828;2022-12-18T10:26:02;100286.78;;;0.70;nan
45525;BME280;31437;58.350;13.828;2022-12-18T10:28:29;100279.91;;;0.71;nan
45525;BME280;31437;58.350;13.828;2022-12-18T10:30:54;100291.16;;;0.68;nan
45525;BME280;31437;58.350;13.828;2022-12-18T10:33:21;100291.13;;;0.70;nan
45525;BME280;31437;58.350;13.828;2022-12-18T10:35:47;100283.41;;;0.68;nan
45525;BME280;31437;58.350;13.828;2022-12-18T10:40:52;100286.84;;;0.67;nan
45525;BME280;31437;58.350;13.828;2022-12-18T10:46:31;100297.16;;;0.67;nan
45525;BME280;31437;58.350;13.828;2022-12-18T10:48:31;100291.97;;;0.70;nan
45525;BME280;31437;58.350;13.828;2022-12-18T10:50:58;100311.72;;;0.73;nan
45525;BME280;31437;58.350;13.828;2022-12-18T10:53:25;100307.44;;;0.72;nan
45525;BME280;31437;58.350;13.828;2022-12-18T10:55:52;100312.63;;;0.72;nan
45525;BME280;31437;58.350;13.828;2022-12-18T10:58:25;100320.38;;;0.72;nan
45525;BME280;31437;58.350;13.828;2022-12-18T11:01:10;100319.50;;;0.71;nan
45525;BME280;31437;58.350;13.828;2022-12-18T11:03:37;100313.47;;;0.74;nan
45525;BME280;31437;58.350;13.828;2022-12-18T11:06:13;100316.84;;;0.76;nan
45525;BME280;31437;58.350;13.828;2022-12-18T11:08:39;100298.78;;;0.76;nan
45525;BME280;31437;58.350;13.828;2022-12-18T11:11:06;100304.75;;;0.81;nan
45525;BME280;31437;58.350;13.828;2022-12-18T11:13:32;100309.88;;;0.84;nan
45525;BME280;31437;58.350;13.828;2022-12-18T11:15:58;100303.81;;;0.85;nan
45525;BME280;31437;58.350;13.828;2022-12-18T11:18:31;100311.56;;;0.86;nan
45525;BME280;31437;58.350;13.828;2022-12-18T11:21:05;100304.69;;;0.87;nan
45525;BME280;31437;58.350;13.828;2022-12-18T11:23:31;100313.28;;;0.89;nan
45525;BME280;31437;58.350;13.828;2022-12-18T11:25:58;100314.97;;;0.90;nan
45525;BME280;31437;58.350;13.828;2022-12-18T11:28:37;100325.28;;;0.92;nan
45525;BME280;31437;58.350;13.828;2022-12-18T11:33:59;100350.13;;;1.02;nan
45525;BME280;31437;58.350;13.828;2022-12-18T11:36:25;100354.41;;;1.04;nan
45525;BME280;31437;58.350;13.828;2022-12-18T11:38:53;100356.09;;;1.07;nan
45525;BME280;31437;58.350;13.828;2022-12-18T11:44:28;100374.16;;;1.10;nan
45525;BME280;31437;58.350;13.828;2022-12-18T11:47:18;100354.38;;;1.07;nan
45525;BME280;31437;58.350;13.828;2022-12-18T11:49:47;100362.97;;;1.09;nan
45525;BME280;31437;58.350;13.828;2022-12-18T11:52:19;100356.06;;;1.10;nan
45525;BME280;31437;58.350;13.828;2022-12-18T11:54:46;100354.31;;;1.10;nan
45525;BME280;31437;58.350;13.828;2022-12-18T11:57:26;100362.91;;;1.12;nan
45525;BME280;31437;58.350;13.828;2022-12-18T11:59:59;100350.84;;;1.13;nan
45525;BME280;31437;58.350;13.828;2022-12-18T12:20:54;100322.38;;;1.16;nan
45525;BME280;31437;58.350;13.828;2022-12-18T12:28:52;100320.66;;;1.17;nan
45525;BME280;31437;58.350;13.828;2022-12-18T12:31:33;100315.47;;;1.17;nan
45525;BME280;31437;58.350;13.828;2022-12-18T12:39:21;100338.69;;;1.20;nan
45525;BME280;31437;58.350;13.828;2022-12-18T12:41:48;100329.22;;;1.20;nan
45525;BME280;31437;58.350;13.828;2022-12-18T12:44:39;100331.78;;;1.22;nan
45525;BME280;31437;58.350;13.828;2022-12-18T12:47:12;100342.97;;;1.24;nan
45525;BME280;31437;58.350;13.828;2022-12-18T12:49:39;100357.63;;;1.22;nan
45525;BME280;31437;58.350;13.828;2022-12-18T12:52:07;100355.03;;;1.22;nan
45525;BME280;31437;58.350;13.828;2022-12-18T12:54:36;100349.84;;;1.23;nan
45525;BME280;31437;58.350;13.828;2022-12-18T12:57:15;100359.31;;;1.24;nan
45525;BME280;31437;58.350;13.828;2022-12-18T13:04:53;100357.56;;;1.26;nan
45525;BME280;31437;58.350;13.828;2022-12-18T13:07:26;100367.06;;;1.24;nan
45525;BME280;31437;58.350;13.828;2022-12-18T13:12:55;100379.97;;;1.26;nan
45525;BME280;31437;58.350;13.828;2022-12-18T13:18:02;100385.09;;;1.30;nan
45525;BME280;31437;58.350;13.828;2022-12-18T13:20:32;100385.09;;;1.29;nan
45525;BME280;31437;58.350;13.828;2022-12-18T13:22:58;100384.22;;;1.30;nan
45525;BME280;31437;58.350;13.828;2022-12-18T13:27:57;100396.31;;;1.26;nan
45525;BME280;31437;58.350;13.828;2022-12-18T13:46:05;100416.09;;;1.30;nan
45525;BME280;31437;58.350;13.828;2022-12-18T13:48:33;100420.41;;;1.30;nan
45525;BME280;31437;58.350;13.828;2022-12-18T13:51:00;100432.47;;;1.29;nan
45525;BME280;31437;58.350;13.828;2022-12-18T13:53:28;100424.66;;;1.34;nan
45525;BME280;31437;58.350;13.828;2022-12-18T13:55:54;100428.94;;;1.35;nan
45525;BME280;31437;58.350;13.828;2022-12-18T13:58:20;100426.34;;;1.36;nan
45525;BME280;31437;58.350;13.828;2022-12-18T14:00:45;100435.84;;;1.36;nan
45525;BME280;31437;58.350;13.828;2022-12-18T14:03:24;100428.94;;;1.35;nan
45525;BME280;31437;58.350;13.828;2022-12-18T14:06:01;100425.63;;;1.27;nan
45525;BME280;31437;58.350;13.828;2022-12-18T14:08:38;100443.66;;;1.33;nan
45525;BME280;31437;58.350;13.828;2022-12-18T14:11:04;100452.22;;;1.35;nan
45525;BME280;31437;58.350;13.828;2022-12-18T14:13:35;100450.47;;;1.37;nan
45525;BME280;31437;58.350;13.828;2022-12-18T14:16:03;100448.75;;;1.38;nan
45525;BME280;31437;58.350;13.828;2022-12-18T14:20:57;100446.19;;;1.36;nan
45525;BME280;31437;58.350;13.828;2022-12-18T14:23:40;100453.09;;;1.34;nan
45525;BME280;31437;58.350;13.828;2022-12-18T14:26:25;100466.88;;;1.34;nan
45525;BME280;31437;58.350;13.828;2022-12-18T14:28:53;100459.13;;;1.36;nan
45525;BME280;31437;58.350;13.828;2022-12-18T14:31:20;100476.31;;;1.39;nan
45525;BME280;31437;58.350;13.828;2022-12-18T14:33:46;100478.03;;;1.38;nan
45525;BME280;31437;58.350;13.828;2022-12-18T14:36:16;100473.75;;;1.37;nan
45525;BME280;31437;58.350;13.828;2022-12-18T14:38:42;100475.47;;;1.36;nan
45525;BME280;31437;58.350;13.828;2022-12-18T14:41:12;100473.75;;;1.37;nan
45525;BME280;31437;58.350;13.828;2022-12-18T14:43:39;100479.75;;;1.38;nan
45525;BME280;31437;58.350;13.828;2022-12-18T14:46:05;100489.22;;;1.40;nan
45525;BME280;31437;58.350;13.828;2022-12-18T14:53:35;100497.84;;;1.39;nan
45525;BME280;31437;58.350;13.828;2022-12-18T14:56:02;100503.03;;;1.39;nan